Time;durP1;ratioP1;P1;durP2;ratioP2;P2;SDS_P1;SDS_P2;PMS_P1;PMS_P2;Temp;Humidity;BMP_temperature;BMP_pressure;BME280_temperature;BME280_humidity;BME280_pressure;Samples;Min_cycle;Max_cycle;Signal;HPM_P1;HPM_P2
2021/09/20 00:01:56;;;;;;;20.73;5.37;;;12.30;99.90;;;;;;5027715;28;21123;-86
2021/09/20 00:04:24;;;;;;;19.47;4.83;;;12.30;99.90;;;;;;5030610;28;20476;-85
2021/09/20 00:06:51;;;;;;;19.30;5.20;;;12.20;99.90;;;;;;5014635;28;20463;-86
2021/09/20 00:09:18;;;;;;;19.53;5.00;;;12.20;99.90;;;;;;5015886;28;20452;-86
2021/09/20 00:11:45;;;;;;;20.37;5.37;;;12.20;99.90;;;;;;4999741;28;20493;-86
2021/09/20 00:14:11;;;;;;;20.20;5.50;;;12.20;99.90;;;;;;5033258;28;20480;-84
2021/09/20 00:16:38;;;;;;;19.60;4.97;;;12.10;99.90;;;;;;5029593;28;20522;-84
2021/09/20 00:19:05;;;;;;;20.73;6.07;;;12.10;99.90;;;;;;5025292;28;20460;-84
2021/09/20 00:21:34;;;;;;;21.07;6.37;;;12.00;99.90;;;;;;5014801;28;20949;-85
2021/09/20 00:24:01;;;;;;;21.07;6.20;;;12.00;99.90;;;;;;5015502;28;20492;-86
2021/09/20 00:26:28;;;;;;;21.53;6.20;;;11.90;99.90;;;;;;5033964;28;20459;-85
2021/09/20 00:28:54;;;;;;;21.30;5.57;;;11.90;99.90;;;;;;5034619;28;20461;-85
2021/09/20 00:31:21;;;;;;;21.30;6.07;;;11.90;99.90;;;;;;5034630;28;20457;-86
2021/09/20 00:33:48;;;;;;;21.73;6.07;;;11.90;99.90;;;;;;5034146;28;20473;-85
2021/09/20 00:36:15;;;;;;;21.60;6.63;;;11.80;99.90;;;;;;5014510;28;20480;-85
2021/09/20 00:38:43;;;;;;;21.63;7.07;;;11.90;99.90;;;;;;5014241;28;20446;-86
2021/09/20 00:41:11;;;;;;;21.40;6.20;;;11.80;99.90;;;;;;5023901;28;20456;-86
2021/09/20 00:43:38;;;;;;;20.57;5.30;;;11.80;99.90;;;;;;5041831;28;20449;-87
2021/09/20 00:46:06;;;;;;;20.40;6.30;;;11.90;99.90;;;;;;5036841;28;20459;-85
2021/09/20 00:48:33;;;;;;;21.77;6.13;;;11.90;99.90;;;;;;5049362;28;20457;-86
2021/09/20 00:51:00;;;;;;;22.30;6.70;;;11.80;99.90;;;;;;5034544;28;20441;-86
2021/09/20 00:53:27;;;;;;;23.17;6.50;;;11.80;99.90;;;;;;5034037;28;20484;-86
2021/09/20 00:55:56;;;;;;;22.97;6.47;;;11.70;99.90;;;;;;5018240;28;20808;-86
2021/09/20 00:58:23;;;;;;;23.23;6.00;;;11.70;99.90;;;;;;5013666;28;20460;-86
2021/09/20 01:00:50;;;;;;;20.50;6.07;;;11.90;99.90;;;;;;5026939;28;20452;-86
2021/09/20 01:03:17;;;;;;;24.33;6.63;;;11.80;99.90;;;;;;5042018;28;20463;-86
2021/09/20 01:05:44;;;;;;;20.93;6.23;;;11.90;99.90;;;;;;5019322;28;20481;-86
2021/09/20 01:08:11;;;;;;;21.10;5.47;;;11.90;99.90;;;;;;5013290;28;20467;-86
2021/09/20 01:10:38;;;;;;;20.70;5.70;;;12.00;99.90;;;;;;5017614;28;21028;-86
2021/09/20 01:13:06;;;;;;;20.53;5.40;;;12.10;99.90;;;;;;5036934;28;20870;-86
2021/09/20 01:15:34;;;;;;;24.00;6.80;;;12.20;99.90;;;;;;5041160;28;20486;-87
2021/09/20 01:18:01;;;;;;;22.90;5.90;;;12.10;99.90;;;;;;5041173;28;20456;-87
2021/09/20 01:20:28;;;;;;;20.53;6.00;;;12.20;99.90;;;;;;5041929;28;20499;-87
2021/09/20 01:23:00;;;;;;;22.73;5.57;;;12.30;99.90;;;;;;5051631;28;20828;-87
2021/09/20 01:25:27;;;;;;;20.00;6.43;;;12.30;99.90;;;;;;5030956;28;20489;-87
2021/09/20 01:27:54;;;;;;;22.80;6.10;;;12.20;99.90;;;;;;5012605;28;20450;-87
2021/09/20 01:30:21;;;;;;;22.10;5.53;;;12.30;99.90;;;;;;5013496;28;20456;-86
2021/09/20 01:32:48;;;;;;;23.90;6.53;;;12.40;99.90;;;;;;5012925;28;20498;-87
2021/09/20 01:35:17;;;;;;;20.83;6.10;;;12.40;99.90;;;;;;5022863;28;20475;-87
2021/09/20 01:37:43;;;;;;;21.70;5.50;;;12.40;99.90;;;;;;5032336;28;20528;-87
2021/09/20 01:40:13;;;;;;;23.20;6.17;;;12.30;99.90;;;;;;5033088;28;20464;-88
2021/09/20 01:42:41;;;;;;;22.20;6.50;;;12.40;99.90;;;;;;5032986;28;20449;-87
2021/09/20 01:45:09;;;;;;;23.10;6.93;;;12.50;99.90;;;;;;5024150;28;20832;-88
2021/09/20 01:47:36;;;;;;;23.77;5.90;;;12.50;99.90;;;;;;5012448;28;20488;-87
2021/09/20 01:50:03;;;;;;;21.33;5.80;;;12.50;99.90;;;;;;4995910;28;20459;-87
2021/09/20 01:52:30;;;;;;;21.47;6.03;;;12.60;99.90;;;;;;5012861;28;20493;-87
2021/09/20 01:54:57;;;;;;;24.00;6.33;;;12.60;99.90;;;;;;5019034;28;20477;-87
2021/09/20 01:57:25;;;;;;;22.40;6.03;;;12.60;99.90;;;;;;5031989;28;20969;-87
2021/09/20 01:59:52;;;;;;;20.97;5.37;;;12.70;99.90;;;;;;5032806;28;20468;-87
2021/09/20 02:02:20;;;;;;;21.63;6.80;;;12.70;99.90;;;;;;5032703;28;20456;-87
2021/09/20 02:04:47;;;;;;;21.70;5.80;;;12.70;99.90;;;;;;5027554;28;20477;-85
2021/09/20 02:07:13;;;;;;;20.03;5.03;;;12.70;99.90;;;;;;5012215;28;20445;-87
2021/09/20 02:09:40;;;;;;;20.20;5.53;;;12.70;99.90;;;;;;5013777;28;20815;-87
2021/09/20 02:12:08;;;;;;;23.23;6.43;;;12.80;99.90;;;;;;5013637;28;20857;-86
2021/09/20 02:14:36;;;;;;;21.87;6.30;;;12.70;99.90;;;;;;5020937;28;20458;-86
2021/09/20 02:17:03;;;;;;;21.73;6.27;;;12.70;99.90;;;;;;5026443;28;20537;-86
2021/09/20 02:19:30;;;;;;;21.37;6.63;;;12.70;99.90;;;;;;5017229;28;20450;-87
2021/09/20 02:21:57;;;;;;;19.80;5.10;;;12.70;99.90;;;;;;5021608;28;20455;-87
2021/09/20 02:24:24;;;;;;;21.30;6.60;;;12.70;99.90;;;;;;5026706;28;20476;-87
2021/09/20 02:26:51;;;;;;;20.47;5.20;;;12.70;99.90;;;;;;5011544;28;20459;-86
2021/09/20 02:29:17;;;;;;;20.90;6.00;;;12.80;99.90;;;;;;5014329;28;20897;-87
2021/09/20 02:31:45;;;;;;;20.80;5.50;;;12.70;99.90;;;;;;5020473;28;20462;-87
2021/09/20 02:34:12;;;;;;;24.90;6.37;;;12.70;99.90;;;;;;5013192;28;20515;-87
2021/09/20 02:36:39;;;;;;;23.60;6.80;;;12.70;99.90;;;;;;5012634;28;20468;-86
2021/09/20 02:39:06;;;;;;;21.87;5.50;;;12.80;99.90;;;;;;5012921;28;20457;-86
2021/09/20 02:41:33;;;;;;;23.80;6.10;;;12.70;99.90;;;;;;5012756;28;20467;-86
2021/09/20 02:43:59;;;;;;;24.80;5.73;;;12.70;99.90;;;;;;5012876;28;20470;-86
2021/09/20 02:46:26;;;;;;;20.47;5.10;;;12.70;99.90;;;;;;5029433;28;20462;-87
2021/09/20 02:48:54;;;;;;;20.93;5.90;;;12.70;99.90;;;;;;5032400;28;20467;-87
2021/09/20 02:51:21;;;;;;;21.63;6.40;;;12.80;99.90;;;;;;5032620;28;20832;-87
2021/09/20 02:53:48;;;;;;;23.57;6.53;;;12.80;99.90;;;;;;5032105;28;20501;-86
2021/09/20 02:56:15;;;;;;;20.87;5.40;;;12.70;99.90;;;;;;5015912;28;20457;-86
2021/09/20 02:58:42;;;;;;;21.90;6.47;;;12.80;99.90;;;;;;5012380;28;20544;-86
2021/09/20 03:01:09;;;;;;;20.27;5.47;;;12.70;99.90;;;;;;5018348;28;20542;-86
2021/09/20 03:03:36;;;;;;;21.57;5.77;;;12.80;99.90;;;;;;5032079;28;20452;-86
2021/09/20 03:06:04;;;;;;;23.87;6.80;;;12.70;99.90;;;;;;5018410;28;20478;-87
2021/09/20 03:08:31;;;;;;;21.27;6.30;;;12.70;99.90;;;;;;5012147;28;20458;-87
2021/09/20 03:10:57;;;;;;;22.13;6.30;;;12.70;99.90;;;;;;5012142;28;20451;-86
2021/09/20 03:13:24;;;;;;;21.33;5.80;;;12.70;99.90;;;;;;5011969;28;20603;-86
2021/09/20 03:15:51;;;;;;;25.43;6.30;;;12.70;99.90;;;;;;5023186;28;20464;-87
2021/09/20 03:18:18;;;;;;;23.67;5.63;;;12.70;99.90;;;;;;5030495;28;20461;-86
2021/09/20 03:20:45;;;;;;;22.53;5.93;;;12.80;99.90;;;;;;5031164;28;20457;-86
2021/09/20 03:23:13;;;;;;;21.40;5.80;;;12.70;99.90;;;;;;5030977;28;20479;-86
2021/09/20 03:25:40;;;;;;;20.70;5.70;;;12.70;99.90;;;;;;5020806;28;20481;-87
2021/09/20 03:28:07;;;;;;;21.10;5.80;;;12.70;99.90;;;;;;5010590;28;20458;-86
2021/09/20 03:30:33;;;;;;;22.63;6.20;;;12.80;99.90;;;;;;5011732;28;20861;-89
2021/09/20 03:33:00;;;;;;;24.60;5.83;;;12.70;99.90;;;;;;5017994;28;20484;-87
2021/09/20 03:35:27;;;;;;;21.87;6.10;;;12.70;99.90;;;;;;5026399;28;20478;-88
2021/09/20 03:37:54;;;;;;;22.27;6.30;;;12.70;99.90;;;;;;5025029;28;20465;-86
2021/09/20 03:40:22;;;;;;;24.73;7.67;;;12.50;99.90;;;;;;5047754;28;20448;-85
2021/09/20 03:42:49;;;;;;;22.20;6.20;;;12.60;99.90;;;;;;5043339;28;20842;-85
2021/09/20 03:45:16;;;;;;;22.20;6.40;;;12.70;99.90;;;;;;5046230;28;20465;-86
2021/09/20 03:47:43;;;;;;;20.00;5.80;;;12.60;99.90;;;;;;5055726;28;20452;-85
2021/09/20 03:50:11;;;;;;;21.87;6.17;;;12.60;99.90;;;;;;5055990;28;20832;-86
2021/09/20 03:52:39;;;;;;;22.37;6.53;;;12.60;99.90;;;;;;5056839;28;20865;-86
2021/09/20 03:55:07;;;;;;;22.57;6.00;;;12.60;99.90;;;;;;5046375;28;20508;-86
2021/09/20 03:57:35;;;;;;;21.60;6.13;;;12.70;99.90;;;;;;5015428;28;20817;-87
2021/09/20 04:00:02;;;;;;;22.20;6.30;;;12.70;99.90;;;;;;5016009;28;20453;-87
2021/09/20 04:02:29;;;;;;;22.37;6.20;;;12.70;99.90;;;;;;5033290;28;20452;-87
2021/09/20 04:04:56;;;;;;;23.30;6.77;;;12.60;99.90;;;;;;5032210;28;20487;-87
2021/09/20 04:07:23;;;;;;;25.17;6.93;;;12.60;99.90;;;;;;5017291;28;20456;-87
2021/09/20 04:09:50;;;;;;;22.23;6.57;;;12.70;99.90;;;;;;5016622;28;20444;-87
2021/09/20 04:12:17;;;;;;;23.43;6.30;;;12.60;99.90;;;;;;5030265;28;20442;-86
2021/09/20 04:14:45;;;;;;;20.60;6.10;;;12.70;99.90;;;;;;5039574;28;20481;-86
2021/09/20 04:17:12;;;;;;;21.93;6.40;;;12.70;99.90;;;;;;5033845;28;20460;-84
2021/09/20 04:19:39;;;;;;;21.30;6.60;;;12.70;99.90;;;;;;5035122;28;20546;-84
2021/09/20 04:22:06;;;;;;;20.70;6.13;;;12.70;99.90;;;;;;5035637;28;20449;-83
2021/09/20 04:24:33;;;;;;;21.20;6.07;;;12.70;99.90;;;;;;5035843;28;20479;-84
2021/09/20 04:27:00;;;;;;;21.43;6.10;;;12.70;99.90;;;;;;5015057;28;20469;-84
2021/09/20 04:29:26;;;;;;;23.60;6.93;;;12.70;99.90;;;;;;5015243;28;20468;-84
2021/09/20 04:31:54;;;;;;;22.43;6.10;;;12.70;99.90;;;;;;5015005;28;20456;-84
2021/09/20 04:34:23;;;;;;;22.60;7.20;;;12.70;99.90;;;;;;5021396;28;20851;-85
2021/09/20 04:36:50;;;;;;;21.83;6.10;;;12.70;99.90;;;;;;5015992;28;20466;-84
2021/09/20 04:39:17;;;;;;;21.60;6.83;;;12.70;99.90;;;;;;5023337;28;20461;-85
2021/09/20 04:41:44;;;;;;;22.17;6.53;;;12.50;99.90;;;;;;5042501;28;20956;-85
2021/09/20 04:44:11;;;;;;;24.57;7.40;;;12.60;99.90;;;;;;5034625;28;20483;-85
2021/09/20 04:46:38;;;;;;;14.23;4.10;;;12.70;99.90;;;;;;5029108;28;20466;-80
2021/09/20 04:49:06;;;;;;;18.07;6.13;;;14.40;99.90;;;;;;5032659;28;20455;-81
2021/09/20 04:51:33;;;;;;;19.47;6.50;;;14.80;99.90;;;;;;5038365;28;20469;-82
2021/09/20 04:54:00;;;;;;;19.60;6.37;;;14.70;99.90;;;;;;5044280;28;20568;-85
2021/09/20 04:56:27;;;;;;;21.33;6.30;;;14.80;99.90;;;;;;5033149;28;20926;-85
2021/09/20 04:58:54;;;;;;;20.17;5.77;;;14.40;99.90;;;;;;5028531;28;20456;-85
2021/09/20 05:01:21;;;;;;;21.40;6.00;;;14.20;99.90;;;;;;5034209;28;20457;-86
2021/09/20 05:03:48;;;;;;;21.17;5.63;;;14.00;99.90;;;;;;5033746;28;20461;-85
2021/09/20 05:06:16;;;;;;;21.73;6.73;;;13.70;99.90;;;;;;5032372;28;20459;-87
2021/09/20 05:08:43;;;;;;;22.10;6.10;;;13.50;99.90;;;;;;5032713;28;20450;-85
2021/09/20 05:11:10;;;;;;;23.33;6.80;;;13.50;99.90;;;;;;5033781;28;21079;-86
2021/09/20 05:13:37;;;;;;;21.40;5.90;;;13.40;99.90;;;;;;5033277;28;20486;-86
2021/09/20 05:16:04;;;;;;;24.30;6.50;;;13.20;99.90;;;;;;5030559;28;20459;-85
2021/09/20 05:18:31;;;;;;;21.53;6.87;;;13.10;99.90;;;;;;5046396;28;20459;-85
2021/09/20 05:20:57;;;;;;;21.73;6.40;;;12.90;99.90;;;;;;5035239;28;20810;-85
2021/09/20 05:23:26;;;;;;;21.50;6.27;;;12.80;99.90;;;;;;5051811;28;20461;-85
2021/09/20 05:25:53;;;;;;;23.40;6.73;;;12.70;99.90;;;;;;5025158;28;20463;-86
2021/09/20 05:28:20;;;;;;;22.53;7.07;;;12.80;99.90;;;;;;5047587;28;20462;-86
2021/09/20 05:30:47;;;;;;;22.63;5.63;;;12.70;99.90;;;;;;5014400;28;20453;-85
2021/09/20 05:33:15;;;;;;;21.00;6.40;;;12.70;99.90;;;;;;5014970;28;20490;-85
2021/09/20 05:35:42;;;;;;;22.53;7.20;;;12.60;99.90;;;;;;5021690;28;20528;-86
2021/09/20 05:38:09;;;;;;;21.77;6.10;;;12.60;99.90;;;;;;5031885;28;20465;-86
2021/09/20 05:40:38;;;;;;;23.10;6.40;;;12.60;99.90;;;;;;5019379;28;20445;-86
2021/09/20 05:43:04;;;;;;;22.23;6.60;;;12.60;99.90;;;;;;5018864;28;20948;-86
2021/09/20 05:45:31;;;;;;;23.10;6.70;;;12.60;99.90;;;;;;5017963;28;20561;-86
2021/09/20 05:48:00;;;;;;;23.20;6.20;;;12.70;99.90;;;;;;5019921;28;20464;-85
2021/09/20 05:50:28;;;;;;;22.70;6.20;;;12.70;99.90;;;;;;5040066;28;20480;-85
2021/09/20 05:52:55;;;;;;;23.43;7.93;;;12.70;99.90;;;;;;5040166;28;20530;-87
2021/09/20 05:55:23;;;;;;;23.60;6.70;;;12.70;99.90;;;;;;5037447;28;20996;-85
2021/09/20 05:57:51;;;;;;;22.40;6.50;;;12.70;99.90;;;;;;5038937;28;20506;-86
2021/09/20 06:00:18;;;;;;;22.47;7.10;;;12.70;99.90;;;;;;5038656;28;20451;-86
2021/09/20 06:02:45;;;;;;;22.43;6.50;;;12.80;99.90;;;;;;5038328;28;20457;-86
2021/09/20 06:05:14;;;;;;;23.03;7.40;;;12.80;99.90;;;;;;5040157;28;20480;-86
2021/09/20 06:07:41;;;;;;;23.20;7.13;;;12.80;99.90;;;;;;5038008;28;20873;-86
2021/09/20 06:10:08;;;;;;;22.43;6.87;;;12.80;99.90;;;;;;5040838;28;20450;-86
2021/09/20 06:12:35;;;;;;;23.77;6.67;;;12.80;99.90;;;;;;5059498;28;20472;-87
2021/09/20 06:15:04;;;;;;;25.33;8.27;;;12.80;99.90;;;;;;5033016;28;20499;-86
2021/09/20 06:17:31;;;;;;;24.47;7.37;;;12.80;99.90;;;;;;5033865;28;20437;-87
2021/09/20 06:19:58;;;;;;;25.87;7.83;;;12.80;99.90;;;;;;5032992;28;20449;-86
2021/09/20 06:22:25;;;;;;;27.57;7.63;;;12.80;99.90;;;;;;5031135;28;20457;-85
2021/09/20 06:24:54;;;;;;;24.50;6.93;;;12.80;99.90;;;;;;5031777;28;20479;-86
2021/09/20 06:27:21;;;;;;;22.73;7.10;;;12.90;99.90;;;;;;5029730;28;20450;-86
2021/09/20 06:29:48;;;;;;;23.47;6.77;;;12.90;99.90;;;;;;5032864;28;20450;-85
2021/09/20 06:32:16;;;;;;;23.87;7.47;;;12.90;99.90;;;;;;5031059;28;20443;-85
2021/09/20 06:34:43;;;;;;;23.97;7.37;;;13.00;99.90;;;;;;5026837;28;20496;-85
2021/09/20 06:37:10;;;;;;;26.57;7.63;;;13.10;99.90;;;;;;5031145;28;20434;-84
2021/09/20 06:39:37;;;;;;;23.10;6.80;;;13.00;99.90;;;;;;5031986;28;20457;-84
2021/09/20 06:42:06;;;;;;;23.07;6.83;;;12.90;99.90;;;;;;5031393;28;20455;-87
2021/09/20 06:44:33;;;;;;;23.73;7.50;;;12.90;99.90;;;;;;5033651;28;20469;-86
2021/09/20 06:47:00;;;;;;;24.47;7.70;;;13.00;99.90;;;;;;5032742;28;20889;-85
2021/09/20 06:49:28;;;;;;;23.30;7.40;;;13.10;99.90;;;;;;5037292;28;20529;-86
2021/09/20 06:51:55;;;;;;;26.07;7.17;;;13.10;99.90;;;;;;5031419;28;20983;-86
2021/09/20 06:54:23;;;;;;;25.03;7.43;;;13.10;99.90;;;;;;5036133;28;20481;-85
2021/09/20 06:56:50;;;;;;;22.73;7.23;;;13.30;99.90;;;;;;5034939;28;20463;-85
2021/09/20 06:59:17;;;;;;;24.10;8.00;;;13.20;99.90;;;;;;5036964;28;20465;-85
2021/09/20 07:01:44;;;;;;;27.93;7.70;;;13.30;99.90;;;;;;5036864;28;20460;-86
2021/09/20 07:04:10;;;;;;;25.80;7.80;;;13.30;99.90;;;;;;5023295;28;20479;-84
2021/09/20 07:06:39;;;;;;;24.00;6.63;;;13.40;99.90;;;;;;5035528;28;20445;-85
2021/09/20 07:09:06;;;;;;;22.67;6.80;;;13.40;99.90;;;;;;5036012;28;20952;-86
2021/09/20 07:11:33;;;;;;;23.17;7.07;;;13.50;99.90;;;;;;5036312;28;20469;-85
2021/09/20 07:14:00;;;;;;;23.63;6.50;;;13.70;99.90;;;;;;5040625;28;20522;-86
2021/09/20 07:16:26;;;;;;;21.80;7.03;;;13.80;99.90;;;;;;5043928;28;20582;-84
2021/09/20 07:18:53;;;;;;;22.47;6.53;;;13.80;99.90;;;;;;5045468;28;20462;-85
2021/09/20 07:21:23;;;;;;;25.13;6.40;;;13.80;99.90;;;;;;5039264;28;20507;-85
2021/09/20 07:23:54;;;;;;;20.67;5.80;;;13.80;99.90;;;;;;5043582;28;20476;-85
2021/09/20 07:26:21;;;;;;;22.00;6.07;;;13.90;99.90;;;;;;5048787;28;20947;-85
2021/09/20 07:28:49;;;;;;;23.37;6.90;;;13.80;99.90;;;;;;5042676;28;20547;-87
2021/09/20 07:31:16;;;;;;;22.60;6.20;;;13.80;99.90;;;;;;5047878;28;20441;-86
2021/09/20 07:33:44;;;;;;;20.80;5.40;;;13.80;99.90;;;;;;5044583;28;20572;-84
2021/09/20 07:36:11;;;;;;;23.17;6.23;;;13.90;99.90;;;;;;5037960;28;20442;-85
2021/09/20 07:38:38;;;;;;;22.20;5.77;;;13.90;99.90;;;;;;5040540;28;20955;-85
2021/09/20 07:41:07;;;;;;;22.40;6.73;;;14.00;99.90;;;;;;5042680;28;20441;-85
2021/09/20 07:43:34;;;;;;;22.97;5.60;;;14.10;99.90;;;;;;5031748;28;20467;-84
2021/09/20 07:46:03;;;;;;;25.30;5.33;;;14.10;99.90;;;;;;5040770;28;20483;-85
2021/09/20 07:48:30;;;;;;;22.40;5.47;;;14.10;99.90;;;;;;5031134;28;20459;-86
2021/09/20 07:50:57;;;;;;;22.33;5.83;;;14.20;99.90;;;;;;5032179;28;20460;-87
2021/09/20 07:53:24;;;;;;;23.97;6.40;;;14.30;99.90;;;;;;5024794;28;20848;-86
2021/09/20 07:55:50;;;;;;;23.03;6.30;;;14.40;99.90;;;;;;5013647;28;20552;-85
2021/09/20 07:58:18;;;;;;;25.30;5.03;;;14.40;99.90;;;;;;5012887;28;20555;-85
2021/09/20 08:00:46;;;;;;;22.43;5.37;;;14.50;99.90;;;;;;5014409;28;20611;-85
2021/09/20 08:03:12;;;;;;;23.10;4.67;;;14.60;99.90;;;;;;5015477;28;20457;-85
2021/09/20 08:05:41;;;;;;;24.87;5.17;;;14.70;99.90;;;;;;5018008;28;20485;-86
2021/09/20 08:08:09;;;;;;;19.10;4.50;;;14.70;99.90;;;;;;5020075;28;20499;-87
2021/09/20 08:10:36;;;;;;;19.00;4.87;;;14.70;99.90;;;;;;5045918;28;20512;-85
2021/09/20 08:13:05;;;;;;;19.17;4.73;;;14.80;99.90;;;;;;5034693;28;20761;-84
2021/09/20 08:15:33;;;;;;;16.07;4.67;;;14.80;99.90;;;;;;5025219;28;20503;-86
2021/09/20 08:18:00;;;;;;;16.03;4.63;;;14.90;99.90;;;;;;5029349;28;20466;-86
2021/09/20 08:20:27;;;;;;;17.43;4.90;;;15.00;99.90;;;;;;5031855;28;20969;-87
2021/09/20 08:22:54;;;;;;;19.27;4.90;;;15.10;99.90;;;;;;5040415;28;20482;-87
2021/09/20 08:25:22;;;;;;;17.17;5.30;;;15.20;99.90;;;;;;5031318;28;20484;-85
2021/09/20 08:27:51;;;;;;;19.20;5.60;;;15.30;99.90;;;;;;5032359;28;20449;-86
2021/09/20 08:30:20;;;;;;;15.77;5.17;;;15.40;99.90;;;;;;5044444;28;20440;-85
2021/09/20 08:32:48;;;;;;;14.50;4.80;;;15.50;99.90;;;;;;5037696;28;20826;-85
2021/09/20 08:35:15;;;;;;;15.57;4.27;;;15.60;99.90;;;;;;5035005;28;20498;-86
2021/09/20 08:37:42;;;;;;;14.80;4.80;;;15.80;99.90;;;;;;5034279;28;20451;-85
2021/09/20 08:40:11;;;;;;;14.10;4.23;;;15.90;99.90;;;;;;5035807;28;20522;-84
2021/09/20 08:42:39;;;;;;;14.20;4.20;;;15.90;99.90;;;;;;5032118;28;20456;-83
2021/09/20 08:45:08;;;;;;;13.97;4.40;;;16.00;99.90;;;;;;5035233;28;20567;-84
2021/09/20 08:47:37;;;;;;;13.37;4.00;;;16.10;99.90;;;;;;5033795;28;20465;-83
2021/09/20 08:50:06;;;;;;;13.10;4.13;;;16.20;99.90;;;;;;5048252;28;20454;-86
2021/09/20 08:52:33;;;;;;;14.90;4.33;;;16.40;99.90;;;;;;5044842;28;20438;-83
2021/09/20 08:55:00;;;;;;;12.40;3.97;;;16.50;99.90;;;;;;5036116;28;20492;-83
2021/09/20 08:57:27;;;;;;;13.17;4.10;;;16.70;99.90;;;;;;5034897;28;20467;-84
2021/09/20 08:59:54;;;;;;;13.40;3.93;;;16.80;99.90;;;;;;5035562;28;20478;-85
2021/09/20 09:02:22;;;;;;;12.63;4.80;;;17.10;99.90;;;;;;5017281;28;20462;-83
2021/09/20 09:04:49;;;;;;;11.20;4.00;;;17.30;99.90;;;;;;5037215;28;20992;-83
2021/09/20 09:07:20;;;;;;;11.00;3.90;;;17.70;99.90;;;;;;5035870;28;20464;-83
2021/09/20 09:09:49;;;;;;;12.63;4.83;;;18.10;99.90;;;;;;5038321;28;20456;-83
2021/09/20 09:12:21;;;;;;;11.33;4.00;;;18.60;99.90;;;;;;5038119;28;20464;-84
2021/09/20 09:14:50;;;;;;;13.27;4.43;;;19.20;99.90;;;;;;5036073;28;20524;-84
2021/09/20 09:17:21;;;;;;;11.97;4.10;;;19.40;99.90;;;;;;5036552;28;20453;-83
2021/09/20 09:19:55;;;;;;;12.73;4.30;;;19.60;99.90;;;;;;5037464;28;20461;-86
2021/09/20 09:22:37;;;;;;;10.63;3.73;;;19.70;99.90;;;;;;5047981;28;20451;-84
2021/09/20 09:25:07;;;;;;;11.63;3.60;;;19.80;99.90;;;;;;5038658;28;20471;-86
2021/09/20 09:27:37;;;;;;;11.73;3.90;;;19.60;99.90;;;;;;5037775;28;20554;-83
2021/09/20 09:30:11;;;;;;;11.27;4.23;;;19.80;99.90;;;;;;5042585;28;20540;-84
2021/09/20 09:32:38;;;;;;;12.40;4.13;;;19.80;99.90;;;;;;5037549;28;20483;-81
2021/09/20 09:35:08;;;;;;;12.13;4.07;;;19.90;99.90;;;;;;5031984;28;20484;-83
2021/09/20 09:37:38;;;;;;;12.00;3.97;;;20.00;99.90;;;;;;5033373;28;20465;-85
2021/09/20 09:40:13;;;;;;;16.13;4.80;;;20.00;99.90;;;;;;5030927;28;20460;-85
2021/09/20 09:42:41;;;;;;;13.47;5.10;;;20.10;99.90;;;;;;5031073;28;20484;-83
2021/09/20 09:45:23;;;;;;;16.23;4.87;;;20.20;99.90;;;;;;5045747;28;20475;-82
2021/09/20 09:47:51;;;;;;;11.43;4.30;;;20.30;99.90;;;;;;5040620;28;20456;-84
2021/09/20 09:50:22;;;;;;;11.00;4.37;;;20.60;99.90;;;;;;5036992;28;20938;-84
2021/09/20 09:52:52;;;;;;;13.87;4.63;;;20.70;99.90;;;;;;5035903;28;20452;-84
2021/09/20 09:55:20;;;;;;;11.70;4.20;;;21.00;99.90;;;;;;5023103;28;20489;-83
2021/09/20 09:57:49;;;;;;;10.30;3.57;;;21.50;99.90;;;;;;5048521;28;20944;-84
2021/09/20 10:00:18;;;;;;;11.70;4.23;;;22.40;99.90;;;;;;5056764;28;20560;-85
2021/09/20 10:02:47;;;;;;;14.00;4.43;;;23.30;98.70;;;;;;5045967;28;20494;-85
2021/09/20 10:05:16;;;;;;;10.80;3.77;;;24.10;95.70;;;;;;5039252;28;20465;-85
2021/09/20 10:07:45;;;;;;;11.07;4.70;;;24.70;95.20;;;;;;5044759;28;20508;-85
2021/09/20 10:10:15;;;;;;;10.87;3.90;;;24.90;92.30;;;;;;5043489;28;20536;-84
2021/09/20 10:12:43;;;;;;;11.43;4.23;;;24.70;90.40;;;;;;5033945;28;20449;-83
2021/09/20 10:15:13;;;;;;;12.00;5.33;;;24.90;92.60;;;;;;5032180;28;20484;-84
2021/09/20 10:17:40;;;;;;;12.83;4.60;;;25.10;93.00;;;;;;5032769;28;20536;-84
2021/09/20 10:20:12;;;;;;;12.10;4.10;;;25.00;92.20;;;;;;5033833;28;20460;-83
2021/09/20 10:22:39;;;;;;;15.43;3.63;;;24.90;91.00;;;;;;5032757;28;20445;-81
2021/09/20 10:25:08;;;;;;;14.30;4.10;;;24.90;99.90;;;;;;5033114;28;20482;-81
2021/09/20 10:27:37;;;;;;;11.60;4.00;;;25.00;99.90;;;;;;5034305;28;20566;-81
2021/09/20 10:30:08;;;;;;;11.67;4.50;;;24.70;99.90;;;;;;5033342;28;20556;-83
2021/09/20 10:32:35;;;;;;;13.77;4.00;;;24.80;99.90;;;;;;5010448;28;20464;-86
2021/09/20 10:35:32;;;;;;;14.00;4.23;;;24.70;99.90;;;;;;5029369;28;20932;-81
2021/09/20 10:38:02;;;;;;;10.77;4.00;;;24.80;99.90;;;;;;5025265;28;20844;-83
2021/09/20 10:40:30;;;;;;;11.60;4.20;;;24.60;99.90;;;;;;5039612;28;20460;-82
2021/09/20 10:43:08;;;;;;;11.40;4.50;;;23.90;99.90;;;;;;5031620;28;20968;-82
2021/09/20 10:45:50;;;;;;;12.70;4.20;;;23.90;97.20;;;;;;5047864;28;20468;-83
2021/09/20 10:48:26;;;;;;;13.63;5.20;;;23.80;99.90;;;;;;5028096;28;20449;-85
2021/09/20 10:50:55;;;;;;;11.90;4.90;;;23.70;96.30;;;;;;5031224;28;20459;-83
2021/09/20 10:53:28;;;;;;;11.90;5.00;;;23.60;97.70;;;;;;5032975;28;20448;-84
2021/09/20 10:56:13;;;;;;;12.10;4.60;;;23.70;95.20;;;;;;5030699;28;20487;-83
2021/09/20 10:58:43;;;;;;;11.53;4.70;;;23.90;95.70;;;;;;5032467;28;20448;-85
2021/09/20 11:01:30;;;;;;;12.33;5.07;;;23.50;95.90;;;;;;5028971;28;20446;-83
2021/09/20 11:03:59;;;;;;;13.37;5.40;;;22.60;95.30;;;;;;5032622;28;20468;-83
2021/09/20 11:06:29;;;;;;;12.77;5.80;;;22.20;95.40;;;;;;5032084;28;20972;-85
2021/09/20 11:09:31;;;;;;;13.17;4.90;;;22.10;99.90;;;;;;5031874;28;20467;-82
2021/09/20 11:12:06;;;;;;;14.87;5.07;;;22.10;98.30;;;;;;5034485;28;20502;-83
2021/09/20 11:14:49;;;;;;;11.77;4.83;;;21.90;99.10;;;;;;5035049;28;20480;-84
2021/09/20 11:17:29;;;;;;;16.67;4.87;;;22.50;99.90;;;;;;5038968;28;20444;-84
2021/09/20 11:19:59;;;;;;;12.33;5.07;;;23.30;95.50;;;;;;5032027;28;20494;-83
2021/09/20 11:22:28;;;;;;;12.20;4.90;;;23.90;96.50;;;;;;5030978;28;20445;-84
2021/09/20 11:25:02;;;;;;;11.17;4.67;;;24.60;95.90;;;;;;5031821;28;20544;-83
2021/09/20 11:27:31;;;;;;;12.47;5.30;;;25.60;96.20;;;;;;5047352;28;20452;-81
2021/09/20 11:30:08;;;;;;;13.50;5.93;;;25.40;94.00;;;;;;5030397;28;20539;-81
2021/09/20 11:32:44;;;;;;;11.70;5.20;;;24.70;91.40;;;;;;5037476;28;20577;-84
2021/09/20 11:35:11;;;;;;;10.80;4.47;;;23.80;96.20;;;;;;5039213;28;20480;-81
2021/09/20 11:37:38;;;;;;;13.80;5.10;;;24.90;94.80;;;;;;5031264;28;20449;-82
2021/09/20 11:40:08;;;;;;;12.90;5.17;;;26.60;91.90;;;;;;5031446;28;20433;-82
2021/09/20 11:42:43;;;;;;;12.33;4.87;;;26.70;88.70;;;;;;5032149;28;20441;-82
2021/09/20 11:45:15;;;;;;;10.00;3.87;;;27.70;89.00;;;;;;5015919;28;20563;-82
2021/09/20 11:47:46;;;;;;;12.90;4.50;;;28.80;79.70;;;;;;5032529;28;20441;-83
2021/09/20 11:50:14;;;;;;;11.60;4.27;;;;;;;;;;5032669;28;20449;-82
2021/09/20 11:52:42;;;;;;;10.67;4.70;;;;;;;;;;5033670;28;20493;-83
2021/09/20 11:55:13;;;;;;;10.17;4.43;;;;;;;;;;5045399;28;20469;-82
2021/09/20 11:57:41;;;;;;;13.50;5.13;;;;;;;;;;5055469;28;20445;-81
2021/09/20 12:00:09;;;;;;;11.73;4.67;;;;;;;;;;5050004;28;20547;-82
2021/09/20 12:02:42;;;;;;;14.00;5.10;;;;;;;;;;5062753;28;20455;-82
2021/09/20 12:05:10;;;;;;;13.40;4.33;;;;;;;;;;5070478;28;20448;-84
2021/09/20 12:07:39;;;;;;;18.33;5.30;;;;;;;;;;5079034;28;20462;-84
2021/09/20 12:10:07;;;;;;;14.70;4.23;;;;;;;;;;5065632;28;20474;-84
2021/09/20 12:12:36;;;;;;;21.13;4.90;;;;;;;;;;5063000;28;20467;-86
2021/09/20 12:15:08;;;;;;;10.80;4.50;;;;;;;;;;5057419;28;20554;-83
2021/09/20 12:17:56;;;;;;;10.67;3.47;;;;;;;;;;5055402;28;20990;-83
2021/09/20 12:20:25;;;;;;;11.73;4.30;;;;;;;;;;5056158;28;20483;-83
2021/09/20 12:22:53;;;;;;;10.80;3.90;;;;;;;;;;5035138;28;20484;-83
2021/09/20 12:25:26;;;;;;;10.30;3.90;;;;;;;;;;5036283;28;20993;-84
2021/09/20 12:27:54;;;;;;;15.37;4.20;;;;;;;;;;5034671;28;20477;-83
2021/09/20 12:30:22;;;;;;;10.07;3.40;;;;;;;;;;5035605;28;20583;-82
2021/09/20 12:32:49;;;;;;;11.93;4.10;;;;;;;;;;5035985;28;20492;-82
2021/09/20 12:35:18;;;;;;;13.50;4.10;;;;;;;;;;5035276;28;20480;-83
2021/09/20 12:37:45;;;;;;;13.37;4.10;;;;;;;;;;5035672;28;20519;-83
2021/09/20 12:40:17;;;;;;;11.47;3.57;;;;;;;;;;5037746;28;21036;-84
2021/09/20 12:42:44;;;;;;;10.80;3.87;;;;;;;;;;5033804;28;20554;-83
2021/09/20 12:45:16;;;;;;;10.10;3.20;;;;;;;;;;5039194;28;20555;-83
2021/09/20 12:47:43;;;;;;;10.23;3.10;;;;;;;;;;5036395;28;20463;-83
2021/09/20 12:50:11;;;;;;;10.83;3.70;;;;;;;;;;5038418;28;20519;-85
2021/09/20 12:52:44;;;;;;;10.37;3.30;;;;;;;;;;5038380;28;20536;-83